Airfield :
LOGIN :

Register | Disclaimer

   EN    FR    IT 

 










Legend :    VFR   Marginal VFR   IFR   Intensive IFR   Very Intensive IFR
Visi :
Ceiling :
>= 8 km
>= 3000ft
5 to 8 km
1000 to 3000 ft
1500m to 5 km
500 to 1000 ft
800 to 1500m
200 to 500 ft
< 800m
< 200 ft
Symbols :   Thunderstorms  Fog  Heavy snow  Heavy precipitations  Wind > 20 kt
SIGMETs :     Misc.  Thunderstorms  Icing  Turbulence  Mountain Waves  Volcanic Ashes






- Airport Elevation : 788 ft
- IATA code : DCM


LFCK - Castres-Mazamet

CURRENT METAR :
  • 030730Z AUTO 30004KT 260V020 CAVOK 21/15 Q1021 NOSIG

EXPIRED METARs :
  • 030700Z AUTO 29004KT 260V320 CAVOK 21/14 Q1021 NOSIG
  • 030630Z AUTO VRB03KT CAVOK 20/14 Q1021 NOSIG
  • 030600Z AUTO VRB01KT CAVOK 20/14 Q1021 NOSIG
  • 030530Z AUTO VRB02KT CAVOK 18/14 Q1021
  • 030500Z AUTO 00000KT CAVOK 16/13 Q1021
  • 030430Z AUTO 05001KT CAVOK 15/12 Q1020

TAF TAF LFCK
Valid from the 03 at 06:00 until the 03 at 15:00 UTC


030500Z 0306/0315 VRB02KT CAVOK
BECMG 0307/0309 30007KT



MET'MAP, your aeronautical weather chart ! - Copyright ORBIFLY December 2007 - Disclaimer

ORBIFLY MET'MAP TEAM :

Programming & Development : Alexandra Zaïnal
Original concept : Baudouin d'Aumeries
Technical & hardware support : Manuel Goepfert
Assistance : Marc-Olivier Méhu




SOURCES & CREDITS :

   NOAA